sensor_id;sensor_type;location;lat;lon;timestamp;P1;durP1;ratioP1;P2;durP2;ratioP2
42964;SDS011;28604;51.204;22.552;2023-06-26T00:02:25;3.13;;;2.92;;
42964;SDS011;28604;51.204;22.552;2023-06-26T00:04:51;3.15;;;2.85;;
42964;SDS011;28604;51.204;22.552;2023-06-26T00:07:20;4.47;;;2.97;;
42964;SDS011;28604;51.204;22.552;2023-06-26T00:09:46;3.75;;;3.45;;
42964;SDS011;28604;51.204;22.552;2023-06-26T00:12:12;6.65;;;3.30;;
42964;SDS011;28604;51.204;22.552;2023-06-26T00:14:37;4.47;;;3.63;;
42964;SDS011;28604;51.204;22.552;2023-06-26T00:17:04;3.53;;;3.22;;
42964;SDS011;28604;51.204;22.552;2023-06-26T00:19:29;2.97;;;2.78;;
42964;SDS011;28604;51.204;22.552;2023-06-26T00:21:55;3.50;;;3.30;;
42964;SDS011;28604;51.204;22.552;2023-06-26T00:24:21;4.18;;;3.33;;
42964;SDS011;28604;51.204;22.552;2023-06-26T00:26:48;5.70;;;3.40;;
42964;SDS011;28604;51.204;22.552;2023-06-26T00:29:14;3.78;;;3.55;;
42964;SDS011;28604;51.204;22.552;2023-06-26T00:31:40;3.22;;;3.03;;
42964;SDS011;28604;51.204;22.552;2023-06-26T00:34:06;3.92;;;3.50;;
42964;SDS011;28604;51.204;22.552;2023-06-26T00:36:32;4.63;;;3.50;;
42964;SDS011;28604;51.204;22.552;2023-06-26T00:38:58;3.15;;;2.95;;
42964;SDS011;28604;51.204;22.552;2023-06-26T00:41:26;4.22;;;3.17;;
42964;SDS011;28604;51.204;22.552;2023-06-26T00:43:52;5.47;;;3.40;;
42964;SDS011;28604;51.204;22.552;2023-06-26T00:46:18;5.60;;;3.42;;
42964;SDS011;28604;51.204;22.552;2023-06-26T00:48:45;3.28;;;3.08;;
42964;SDS011;28604;51.204;22.552;2023-06-26T00:51:12;4.68;;;2.90;;
42964;SDS011;28604;51.204;22.552;2023-06-26T00:53:38;3.40;;;3.28;;
42964;SDS011;28604;51.204;22.552;2023-06-26T00:56:05;8.27;;;3.20;;
42964;SDS011;28604;51.204;22.552;2023-06-26T00:58:32;5.10;;;3.38;;
42964;SDS011;28604;51.204;22.552;2023-06-26T01:03:54;4.05;;;3.78;;
42964;SDS011;28604;51.204;22.552;2023-06-26T01:06:21;6.35;;;3.25;;
42964;SDS011;28604;51.204;22.552;2023-06-26T01:08:49;5.18;;;2.90;;
42964;SDS011;28604;51.204;22.552;2023-06-26T01:11:17;3.45;;;3.13;;
42964;SDS011;28604;51.204;22.552;2023-06-26T01:13:43;5.30;;;3.08;;
42964;SDS011;28604;51.204;22.552;2023-06-26T01:16:10;4.60;;;3.42;;
42964;SDS011;28604;51.204;22.552;2023-06-26T01:18:38;7.15;;;3.55;;
42964;SDS011;28604;51.204;22.552;2023-06-26T01:21:07;5.00;;;3.65;;
42964;SDS011;28604;51.204;22.552;2023-06-26T01:23:40;3.33;;;3.13;;
42964;SDS011;28604;51.204;22.552;2023-06-26T01:26:19;4.78;;;3.50;;
42964;SDS011;28604;51.204;22.552;2023-06-26T01:28:47;3.45;;;3.15;;
42964;SDS011;28604;51.204;22.552;2023-06-26T01:31:16;3.25;;;3.13;;
42964;SDS011;28604;51.204;22.552;2023-06-26T01:33:43;3.50;;;3.20;;
42964;SDS011;28604;51.204;22.552;2023-06-26T01:36:09;5.32;;;3.50;;
42964;SDS011;28604;51.204;22.552;2023-06-26T01:38:36;3.65;;;3.35;;
42964;SDS011;28604;51.204;22.552;2023-06-26T01:41:02;3.40;;;3.30;;
42964;SDS011;28604;51.204;22.552;2023-06-26T01:54:55;7.13;;;3.92;;
42964;SDS011;28604;51.204;22.552;2023-06-26T01:57:32;3.70;;;3.50;;
42964;SDS011;28604;51.204;22.552;2023-06-26T02:00:00;3.97;;;3.13;;
42964;SDS011;28604;51.204;22.552;2023-06-26T02:02:28;4.57;;;3.28;;
42964;SDS011;28604;51.204;22.552;2023-06-26T02:04:55;3.75;;;3.25;;
42964;SDS011;28604;51.204;22.552;2023-06-26T02:07:22;2.83;;;2.63;;
42964;SDS011;28604;51.204;22.552;2023-06-26T02:09:48;6.55;;;3.58;;
42964;SDS011;28604;51.204;22.552;2023-06-26T02:12:14;3.92;;;3.33;;
42964;SDS011;28604;51.204;22.552;2023-06-26T02:14:40;3.38;;;3.08;;
42964;SDS011;28604;51.204;22.552;2023-06-26T02:17:06;4.63;;;3.67;;
42964;SDS011;28604;51.204;22.552;2023-06-26T02:19:34;4.03;;;3.63;;
42964;SDS011;28604;51.204;22.552;2023-06-26T02:22:00;5.13;;;3.47;;
42964;SDS011;28604;51.204;22.552;2023-06-26T02:24:26;3.35;;;3.22;;
42964;SDS011;28604;51.204;22.552;2023-06-26T02:26:57;3.28;;;2.97;;
42964;SDS011;28604;51.204;22.552;2023-06-26T02:29:23;7.50;;;3.58;;
42964;SDS011;28604;51.204;22.552;2023-06-26T02:31:49;6.15;;;3.88;;
42964;SDS011;28604;51.204;22.552;2023-06-26T02:34:15;4.25;;;3.95;;
42964;SDS011;28604;51.204;22.552;2023-06-26T02:36:41;4.18;;;3.78;;
42964;SDS011;28604;51.204;22.552;2023-06-26T02:39:07;8.00;;;3.28;;
42964;SDS011;28604;51.204;22.552;2023-06-26T02:41:33;5.82;;;4.05;;
42964;SDS011;28604;51.204;22.552;2023-06-26T02:43:59;4.03;;;3.70;;
42964;SDS011;28604;51.204;22.552;2023-06-26T02:46:26;6.40;;;3.40;;
42964;SDS011;28604;51.204;22.552;2023-06-26T02:48:52;6.30;;;3.30;;
42964;SDS011;28604;51.204;22.552;2023-06-26T02:51:18;3.88;;;3.60;;
42964;SDS011;28604;51.204;22.552;2023-06-26T02:53:44;3.35;;;3.10;;
42964;SDS011;28604;51.204;22.552;2023-06-26T02:56:10;5.25;;;4.05;;
42964;SDS011;28604;51.204;22.552;2023-06-26T02:58:36;5.88;;;3.65;;
42964;SDS011;28604;51.204;22.552;2023-06-26T03:01:02;9.40;;;7.55;;
42964;SDS011;28604;51.204;22.552;2023-06-26T03:03:28;5.40;;;4.90;;
42964;SDS011;28604;51.204;22.552;2023-06-26T03:05:56;4.50;;;4.20;;
42964;SDS011;28604;51.204;22.552;2023-06-26T03:08:22;8.50;;;4.63;;
42964;SDS011;28604;51.204;22.552;2023-06-26T03:10:49;6.57;;;4.32;;
42964;SDS011;28604;51.204;22.552;2023-06-26T03:13:14;4.60;;;3.92;;
42964;SDS011;28604;51.204;22.552;2023-06-26T03:15:41;7.18;;;4.22;;
42964;SDS011;28604;51.204;22.552;2023-06-26T03:18:06;8.93;;;4.80;;
42964;SDS011;28604;51.204;22.552;2023-06-26T03:20:33;5.28;;;4.78;;
42964;SDS011;28604;51.204;22.552;2023-06-26T03:22:58;6.63;;;4.35;;
42964;SDS011;28604;51.204;22.552;2023-06-26T03:25:25;4.75;;;4.35;;
42964;SDS011;28604;51.204;22.552;2023-06-26T03:28:08;5.55;;;4.40;;
42964;SDS011;28604;51.204;22.552;2023-06-26T03:30:35;3.92;;;3.63;;
42964;SDS011;28604;51.204;22.552;2023-06-26T03:33:01;8.77;;;3.80;;
42964;SDS011;28604;51.204;22.552;2023-06-26T03:35:27;5.53;;;4.28;;
42964;SDS011;28604;51.204;22.552;2023-06-26T03:37:53;8.88;;;3.80;;
42964;SDS011;28604;51.204;22.552;2023-06-26T03:40:20;8.48;;;4.53;;
42964;SDS011;28604;51.204;22.552;2023-06-26T03:42:45;9.30;;;4.72;;
42964;SDS011;28604;51.204;22.552;2023-06-26T03:45:12;6.28;;;4.85;;
42964;SDS011;28604;51.204;22.552;2023-06-26T03:47:39;5.30;;;4.82;;
42964;SDS011;28604;51.204;22.552;2023-06-26T03:50:05;8.85;;;4.40;;
42964;SDS011;28604;51.204;22.552;2023-06-26T03:52:31;8.85;;;5.10;;
42964;SDS011;28604;51.204;22.552;2023-06-26T03:54:57;12.02;;;5.53;;
42964;SDS011;28604;51.204;22.552;2023-06-26T03:57:23;13.50;;;6.00;;
42964;SDS011;28604;51.204;22.552;2023-06-26T03:59:50;15.63;;;5.45;;
42964;SDS011;28604;51.204;22.552;2023-06-26T04:02:16;6.85;;;5.07;;
42964;SDS011;28604;51.204;22.552;2023-06-26T04:04:43;6.65;;;4.78;;
42964;SDS011;28604;51.204;22.552;2023-06-26T04:07:09;7.30;;;4.07;;
42964;SDS011;28604;51.204;22.552;2023-06-26T04:09:36;5.85;;;4.05;;
42964;SDS011;28604;51.204;22.552;2023-06-26T04:12:02;5.90;;;5.30;;
42964;SDS011;28604;51.204;22.552;2023-06-26T04:14:29;4.40;;;3.92;;
42964;SDS011;28604;51.204;22.552;2023-06-26T04:16:55;12.10;;;7.03;;
42964;SDS011;28604;51.204;22.552;2023-06-26T04:19:23;14.40;;;8.18;;
42964;SDS011;28604;51.204;22.552;2023-06-26T04:21:49;11.60;;;8.55;;
42964;SDS011;28604;51.204;22.552;2023-06-26T04:24:15;15.23;;;7.45;;
42964;SDS011;28604;51.204;22.552;2023-06-26T04:26:40;10.40;;;6.90;;
42964;SDS011;28604;51.204;22.552;2023-06-26T04:29:06;6.72;;;5.45;;
42964;SDS011;28604;51.204;22.552;2023-06-26T04:31:32;5.28;;;4.75;;
42964;SDS011;28604;51.204;22.552;2023-06-26T04:33:59;9.68;;;6.43;;
42964;SDS011;28604;51.204;22.552;2023-06-26T04:36:25;6.78;;;5.25;;
42964;SDS011;28604;51.204;22.552;2023-06-26T04:38:57;6.78;;;5.65;;
42964;SDS011;28604;51.204;22.552;2023-06-26T04:41:24;4.45;;;4.05;;
42964;SDS011;28604;51.204;22.552;2023-06-26T04:43:50;8.50;;;5.47;;
42964;SDS011;28604;51.204;22.552;2023-06-26T04:46:16;7.18;;;6.57;;
42964;SDS011;28604;51.204;22.552;2023-06-26T04:48:42;6.88;;;6.25;;
42964;SDS011;28604;51.204;22.552;2023-06-26T04:51:10;9.75;;;7.20;;
42964;SDS011;28604;51.204;22.552;2023-06-26T04:53:36;12.35;;;7.38;;
42964;SDS011;28604;51.204;22.552;2023-06-26T04:56:02;9.60;;;6.35;;
42964;SDS011;28604;51.204;22.552;2023-06-26T04:58:28;10.52;;;7.63;;
42964;SDS011;28604;51.204;22.552;2023-06-26T05:00:55;6.55;;;5.75;;
42964;SDS011;28604;51.204;22.552;2023-06-26T05:03:21;8.82;;;5.70;;
42964;SDS011;28604;51.204;22.552;2023-06-26T05:05:47;8.15;;;6.97;;
42964;SDS011;28604;51.204;22.552;2023-06-26T05:10:44;10.48;;;6.78;;
42964;SDS011;28604;51.204;22.552;2023-06-26T05:13:10;9.57;;;7.38;;
42964;SDS011;28604;51.204;22.552;2023-06-26T05:15:37;7.28;;;6.50;;
42964;SDS011;28604;51.204;22.552;2023-06-26T05:18:03;5.95;;;5.25;;
42964;SDS011;28604;51.204;22.552;2023-06-26T05:20:29;9.93;;;6.63;;
42964;SDS011;28604;51.204;22.552;2023-06-26T05:22:55;9.35;;;6.60;;
42964;SDS011;28604;51.204;22.552;2023-06-26T05:25:21;11.75;;;5.97;;
42964;SDS011;28604;51.204;22.552;2023-06-26T05:27:49;6.85;;;6.10;;
42964;SDS011;28604;51.204;22.552;2023-06-26T05:30:16;6.97;;;6.28;;
42964;SDS011;28604;51.204;22.552;2023-06-26T05:32:42;7.63;;;6.75;;
42964;SDS011;28604;51.204;22.552;2023-06-26T05:35:12;8.10;;;5.88;;
42964;SDS011;28604;51.204;22.552;2023-06-26T05:37:40;9.23;;;6.22;;
42964;SDS011;28604;51.204;22.552;2023-06-26T05:40:07;7.35;;;5.68;;
42964;SDS011;28604;51.204;22.552;2023-06-26T05:42:34;12.57;;;6.47;;
42964;SDS011;28604;51.204;22.552;2023-06-26T05:45:00;12.30;;;6.13;;
42964;SDS011;28604;51.204;22.552;2023-06-26T05:47:26;6.68;;;5.97;;
42964;SDS011;28604;51.204;22.552;2023-06-26T05:49:52;6.68;;;5.75;;
42964;SDS011;28604;51.204;22.552;2023-06-26T05:52:19;7.72;;;5.43;;
42964;SDS011;28604;51.204;22.552;2023-06-26T05:54:45;13.02;;;5.32;;
42964;SDS011;28604;51.204;22.552;2023-06-26T05:57:11;10.73;;;5.97;;
42964;SDS011;28604;51.204;22.552;2023-06-26T05:59:39;5.95;;;5.15;;
42964;SDS011;28604;51.204;22.552;2023-06-26T06:02:07;5.05;;;4.47;;
42964;SDS011;28604;51.204;22.552;2023-06-26T06:04:33;5.97;;;4.55;;
42964;SDS011;28604;51.204;22.552;2023-06-26T06:07:00;7.40;;;4.82;;
42964;SDS011;28604;51.204;22.552;2023-06-26T06:09:26;7.13;;;4.55;;
42964;SDS011;28604;51.204;22.552;2023-06-26T06:11:52;4.88;;;4.43;;
42964;SDS011;28604;51.204;22.552;2023-06-26T06:14:18;5.63;;;4.53;;
42964;SDS011;28604;51.204;22.552;2023-06-26T06:16:44;4.15;;;3.75;;
42964;SDS011;28604;51.204;22.552;2023-06-26T06:19:10;8.73;;;4.30;;
42964;SDS011;28604;51.204;22.552;2023-06-26T06:21:39;7.03;;;3.88;;
42964;SDS011;28604;51.204;22.552;2023-06-26T06:24:05;4.57;;;3.65;;
42964;SDS011;28604;51.204;22.552;2023-06-26T06:26:32;4.05;;;3.67;;
42964;SDS011;28604;51.204;22.552;2023-06-26T06:28:58;7.15;;;3.70;;
42964;SDS011;28604;51.204;22.552;2023-06-26T06:31:24;11.25;;;3.65;;
42964;SDS011;28604;51.204;22.552;2023-06-26T06:33:56;5.65;;;3.05;;
42964;SDS011;28604;51.204;22.552;2023-06-26T06:36:22;5.32;;;3.40;;
42964;SDS011;28604;51.204;22.552;2023-06-26T06:38:48;3.70;;;3.03;;
42964;SDS011;28604;51.204;22.552;2023-06-26T06:41:14;2.38;;;2.25;;
42964;SDS011;28604;51.204;22.552;2023-06-26T06:43:40;2.15;;;2.05;;
42964;SDS011;28604;51.204;22.552;2023-06-26T06:46:07;5.40;;;2.47;;
42964;SDS011;28604;51.204;22.552;2023-06-26T06:48:33;2.15;;;2.00;;
42964;SDS011;28604;51.204;22.552;2023-06-26T06:51:00;2.88;;;1.95;;
42964;SDS011;28604;51.204;22.552;2023-06-26T06:53:26;6.28;;;2.15;;
42964;SDS011;28604;51.204;22.552;2023-06-26T06:55:52;1.92;;;1.77;;
42964;SDS011;28604;51.204;22.552;2023-06-26T06:58:18;3.75;;;2.20;;
42964;SDS011;28604;51.204;22.552;2023-06-26T07:00:48;3.53;;;1.88;;
42964;SDS011;28604;51.204;22.552;2023-06-26T07:03:14;3.40;;;2.10;;
42964;SDS011;28604;51.204;22.552;2023-06-26T07:05:41;2.17;;;1.95;;
42964;SDS011;28604;51.204;22.552;2023-06-26T07:08:07;2.28;;;2.15;;
42964;SDS011;28604;51.204;22.552;2023-06-26T07:10:34;1.75;;;1.65;;
42964;SDS011;28604;51.204;22.552;2023-06-26T07:12:59;3.05;;;1.20;;
42964;SDS011;28604;51.204;22.552;2023-06-26T07:15:26;1.33;;;1.20;;
42964;SDS011;28604;51.204;22.552;2023-06-26T07:17:51;2.60;;;1.45;;
42964;SDS011;28604;51.204;22.552;2023-06-26T07:20:17;3.28;;;1.98;;
42964;SDS011;28604;51.204;22.552;2023-06-26T07:22:43;2.95;;;1.52;;
42964;SDS011;28604;51.204;22.552;2023-06-26T07:25:12;1.80;;;1.40;;
42964;SDS011;28604;51.204;22.552;2023-06-26T07:27:38;4.20;;;1.55;;
42964;SDS011;28604;51.204;22.552;2023-06-26T07:30:05;2.90;;;1.40;;
42964;SDS011;28604;51.204;22.552;2023-06-26T07:32:34;4.90;;;1.30;;
42964;SDS011;28604;51.204;22.552;2023-06-26T07:35:00;3.38;;;1.95;;
42964;SDS011;28604;51.204;22.552;2023-06-26T07:37:26;1.75;;;1.50;;
42964;SDS011;28604;51.204;22.552;2023-06-26T07:39:52;3.33;;;1.02;;
42964;SDS011;28604;51.204;22.552;2023-06-26T07:42:18;3.10;;;1.35;;
42964;SDS011;28604;51.204;22.552;2023-06-26T07:44:45;1.80;;;1.17;;
42964;SDS011;28604;51.204;22.552;2023-06-26T07:47:11;2.47;;;1.17;;
42964;SDS011;28604;51.204;22.552;2023-06-26T07:49:37;3.00;;;0.80;;
42964;SDS011;28604;51.204;22.552;2023-06-26T07:52:04;1.88;;;1.10;;
42964;SDS011;28604;51.204;22.552;2023-06-26T07:54:30;3.83;;;1.00;;
42964;SDS011;28604;51.204;22.552;2023-06-26T07:59:24;2.25;;;0.63;;
42964;SDS011;28604;51.204;22.552;2023-06-26T08:01:52;2.28;;;0.63;;
42964;SDS011;28604;51.204;22.552;2023-06-26T08:04:19;0.50;;;0.50;;
42964;SDS011;28604;51.204;22.552;2023-06-26T08:06:50;1.15;;;0.98;;
42964;SDS011;28604;51.204;22.552;2023-06-26T08:09:18;5.90;;;1.02;;
42964;SDS011;28604;51.204;22.552;2023-06-26T08:11:45;1.33;;;0.57;;
42964;SDS011;28604;51.204;22.552;2023-06-26T08:14:12;4.70;;;0.90;;
42964;SDS011;28604;51.204;22.552;2023-06-26T08:16:39;3.90;;;0.98;;
42964;SDS011;28604;51.204;22.552;2023-06-26T08:19:06;0.90;;;0.60;;
42964;SDS011;28604;51.204;22.552;2023-06-26T08:21:32;3.00;;;0.73;;
42964;SDS011;28604;51.204;22.552;2023-06-26T08:23:59;4.93;;;0.82;;
42964;SDS011;28604;51.204;22.552;2023-06-26T08:26:24;3.53;;;0.80;;
42964;SDS011;28604;51.204;22.552;2023-06-26T08:28:50;2.40;;;0.55;;
42964;SDS011;28604;51.204;22.552;2023-06-26T08:31:17;1.30;;;0.70;;
42964;SDS011;28604;51.204;22.552;2023-06-26T08:33:43;0.88;;;0.80;;
42964;SDS011;28604;51.204;22.552;2023-06-26T08:36:09;1.98;;;0.98;;
42964;SDS011;28604;51.204;22.552;2023-06-26T08:38:35;1.67;;;1.17;;
42964;SDS011;28604;51.204;22.552;2023-06-26T08:41:01;2.42;;;0.68;;
42964;SDS011;28604;51.204;22.552;2023-06-26T08:43:27;1.83;;;1.17;;
42964;SDS011;28604;51.204;22.552;2023-06-26T08:45:53;4.97;;;2.65;;
42964;SDS011;28604;51.204;22.552;2023-06-26T08:48:20;0.77;;;0.77;;
42964;SDS011;28604;51.204;22.552;2023-06-26T08:50:49;1.10;;;0.63;;
42964;SDS011;28604;51.204;22.552;2023-06-26T08:53:21;0.85;;;0.60;;
42964;SDS011;28604;51.204;22.552;2023-06-26T08:56:09;1.48;;;0.70;;
42964;SDS011;28604;51.204;22.552;2023-06-26T08:58:39;2.15;;;0.63;;
42964;SDS011;28604;51.204;22.552;2023-06-26T09:01:05;0.63;;;0.57;;
42964;SDS011;28604;51.204;22.552;2023-06-26T09:03:32;0.65;;;0.60;;
42964;SDS011;28604;51.204;22.552;2023-06-26T09:05:58;0.82;;;0.82;;
42964;SDS011;28604;51.204;22.552;2023-06-26T09:08:24;1.80;;;0.60;;
42964;SDS011;28604;51.204;22.552;2023-06-26T09:10:51;1.38;;;0.43;;
42964;SDS011;28604;51.204;22.552;2023-06-26T09:13:18;1.10;;;0.90;;
42964;SDS011;28604;51.204;22.552;2023-06-26T09:15:44;0.80;;;0.80;;
42964;SDS011;28604;51.204;22.552;2023-06-26T09:18:11;0.88;;;0.82;;
42964;SDS011;28604;51.204;22.552;2023-06-26T09:20:37;2.85;;;0.77;;
42964;SDS011;28604;51.204;22.552;2023-06-26T09:23:04;5.20;;;0.68;;
42964;SDS011;28604;51.204;22.552;2023-06-26T09:25:30;0.85;;;0.85;;
42964;SDS011;28604;51.204;22.552;2023-06-26T09:27:57;0.90;;;0.70;;
42964;SDS011;28604;51.204;22.552;2023-06-26T09:30:23;2.72;;;0.77;;
42964;SDS011;28604;51.204;22.552;2023-06-26T09:32:50;1.10;;;0.70;;
42964;SDS011;28604;51.204;22.552;2023-06-26T09:35:16;1.55;;;0.77;;
42964;SDS011;28604;51.204;22.552;2023-06-26T09:37:43;1.45;;;0.52;;
42964;SDS011;28604;51.204;22.552;2023-06-26T09:40:09;2.47;;;0.60;;
42964;SDS011;28604;51.204;22.552;2023-06-26T09:42:35;0.77;;;0.65;;
42964;SDS011;28604;51.204;22.552;2023-06-26T09:45:02;1.20;;;0.52;;
42964;SDS011;28604;51.204;22.552;2023-06-26T09:47:32;1.17;;;0.70;;
42964;SDS011;28604;51.204;22.552;2023-06-26T09:50:00;0.93;;;0.43;;
42964;SDS011;28604;51.204;22.552;2023-06-26T09:52:28;2.20;;;0.65;;
42964;SDS011;28604;51.204;22.552;2023-06-26T09:55:08;1.98;;;0.68;;
42964;SDS011;28604;51.204;22.552;2023-06-26T09:57:34;4.15;;;0.70;;
42964;SDS011;28604;51.204;22.552;2023-06-26T10:00:02;3.17;;;0.90;;
42964;SDS011;28604;51.204;22.552;2023-06-26T10:02:38;3.55;;;0.90;;
42964;SDS011;28604;51.204;22.552;2023-06-26T10:05:04;1.05;;;1.05;;
42964;SDS011;28604;51.204;22.552;2023-06-26T10:07:30;5.15;;;1.00;;
42964;SDS011;28604;51.204;22.552;2023-06-26T10:09:56;0.80;;;0.80;;
42964;SDS011;28604;51.204;22.552;2023-06-26T10:12:29;0.80;;;0.60;;
42964;SDS011;28604;51.204;22.552;2023-06-26T10:14:56;1.52;;;1.40;;
42964;SDS011;28604;51.204;22.552;2023-06-26T10:17:24;3.60;;;0.88;;
42964;SDS011;28604;51.204;22.552;2023-06-26T10:19:54;2.28;;;0.90;;
42964;SDS011;28604;51.204;22.552;2023-06-26T10:22:21;2.20;;;0.98;;
42964;SDS011;28604;51.204;22.552;2023-06-26T10:24:53;3.92;;;0.80;;
42964;SDS011;28604;51.204;22.552;2023-06-26T10:27:24;0.70;;;0.70;;
42964;SDS011;28604;51.204;22.552;2023-06-26T10:29:54;1.23;;;0.77;;
42964;SDS011;28604;51.204;22.552;2023-06-26T10:32:23;3.83;;;1.00;;
42964;SDS011;28604;51.204;22.552;2023-06-26T10:34:51;1.02;;;1.00;;
42964;SDS011;28604;51.204;22.552;2023-06-26T10:37:18;2.60;;;0.60;;
42964;SDS011;28604;51.204;22.552;2023-06-26T10:39:50;0.68;;;0.68;;
42964;SDS011;28604;51.204;22.552;2023-06-26T10:42:35;0.60;;;0.60;;
42964;SDS011;28604;51.204;22.552;2023-06-26T10:45:08;1.40;;;0.70;;
42964;SDS011;28604;51.204;22.552;2023-06-26T10:47:42;0.60;;;0.60;;
42964;SDS011;28604;51.204;22.552;2023-06-26T10:50:18;1.90;;;0.63;;
42964;SDS011;28604;51.204;22.552;2023-06-26T10:55:44;0.68;;;0.65;;
42964;SDS011;28604;51.204;22.552;2023-06-26T11:06:24;2.23;;;0.63;;
42964;SDS011;28604;51.204;22.552;2023-06-26T11:08:51;0.63;;;0.63;;
42964;SDS011;28604;51.204;22.552;2023-06-26T11:11:19;0.77;;;0.77;;
42964;SDS011;28604;51.204;22.552;2023-06-26T11:13:46;0.73;;;0.73;;
42964;SDS011;28604;51.204;22.552;2023-06-26T11:16:13;0.80;;;0.80;;
42964;SDS011;28604;51.204;22.552;2023-06-26T11:18:40;2.85;;;0.68;;
42964;SDS011;28604;51.204;22.552;2023-06-26T11:21:10;1.15;;;1.10;;
42964;SDS011;28604;51.204;22.552;2023-06-26T11:23:40;3.70;;;0.93;;
42964;SDS011;28604;51.204;22.552;2023-06-26T11:26:15;1.17;;;0.73;;
42964;SDS011;28604;51.204;22.552;2023-06-26T11:28:58;1.20;;;1.10;;
42964;SDS011;28604;51.204;22.552;2023-06-26T11:33:52;2.65;;;1.05;;
42964;SDS011;28604;51.204;22.552;2023-06-26T11:36:18;2.58;;;1.35;;
42964;SDS011;28604;51.204;22.552;2023-06-26T11:38:44;2.72;;;0.73;;
42964;SDS011;28604;51.204;22.552;2023-06-26T11:41:10;1.05;;;1.05;;
42964;SDS011;28604;51.204;22.552;2023-06-26T11:43:42;2.75;;;0.80;;
42964;SDS011;28604;51.204;22.552;2023-06-26T11:46:07;2.33;;;1.05;;
42964;SDS011;28604;51.204;22.552;2023-06-26T11:48:34;1.15;;;1.15;;
42964;SDS011;28604;51.204;22.552;2023-06-26T11:51:00;1.08;;;1.08;;
42964;SDS011;28604;51.204;22.552;2023-06-26T11:53:29;0.90;;;0.90;;
42964;SDS011;28604;51.204;22.552;2023-06-26T11:55:55;1.50;;;1.40;;
42964;SDS011;28604;51.204;22.552;2023-06-26T11:58:22;4.47;;;1.30;;
42964;SDS011;28604;51.204;22.552;2023-06-26T12:00:48;1.58;;;1.50;;
42964;SDS011;28604;51.204;22.552;2023-06-26T12:03:14;2.10;;;1.23;;
42964;SDS011;28604;51.204;22.552;2023-06-26T12:05:41;1.83;;;1.70;;
42964;SDS011;28604;51.204;22.552;2023-06-26T12:08:10;1.55;;;1.45;;
42964;SDS011;28604;51.204;22.552;2023-06-26T12:10:36;1.23;;;1.23;;
42964;SDS011;28604;51.204;22.552;2023-06-26T12:13:02;2.17;;;1.73;;
42964;SDS011;28604;51.204;22.552;2023-06-26T12:15:28;2.70;;;1.58;;
42964;SDS011;28604;51.204;22.552;2023-06-26T12:17:55;1.90;;;1.80;;
42964;SDS011;28604;51.204;22.552;2023-06-26T12:20:21;1.92;;;1.83;;
42964;SDS011;28604;51.204;22.552;2023-06-26T12:22:49;2.10;;;2.00;;
42964;SDS011;28604;51.204;22.552;2023-06-26T12:25:15;3.70;;;1.73;;
42964;SDS011;28604;51.204;22.552;2023-06-26T12:27:46;4.97;;;1.93;;
42964;SDS011;28604;51.204;22.552;2023-06-26T12:30:12;2.40;;;2.20;;
42964;SDS011;28604;51.204;22.552;2023-06-26T12:32:38;1.77;;;1.77;;
42964;SDS011;28604;51.204;22.552;2023-06-26T12:35:05;2.05;;;1.95;;
42964;SDS011;28604;51.204;22.552;2023-06-26T12:37:36;3.40;;;2.00;;
42964;SDS011;28604;51.204;22.552;2023-06-26T12:42:33;2.40;;;2.30;;
42964;SDS011;28604;51.204;22.552;2023-06-26T12:44:59;2.35;;;2.13;;
42964;SDS011;28604;51.204;22.552;2023-06-26T12:47:35;2.05;;;1.95;;
42964;SDS011;28604;51.204;22.552;2023-06-26T12:50:06;2.95;;;2.58;;
42964;SDS011;28604;51.204;22.552;2023-06-26T12:52:32;2.70;;;2.50;;
42964;SDS011;28604;51.204;22.552;2023-06-26T12:54:58;3.13;;;2.30;;
42964;SDS011;28604;51.204;22.552;2023-06-26T12:57:25;2.47;;;2.28;;
42964;SDS011;28604;51.204;22.552;2023-06-26T12:59:51;2.35;;;2.17;;
42964;SDS011;28604;51.204;22.552;2023-06-26T13:02:18;2.78;;;2.22;;
42964;SDS011;28604;51.204;22.552;2023-06-26T13:04:44;2.58;;;2.42;;
42964;SDS011;28604;51.204;22.552;2023-06-26T13:07:10;2.80;;;2.70;;
42964;SDS011;28604;51.204;22.552;2023-06-26T13:09:36;2.67;;;2.47;;
42964;SDS011;28604;51.204;22.552;2023-06-26T13:12:04;3.08;;;2.97;;
42964;SDS011;28604;51.204;22.552;2023-06-26T13:14:31;2.80;;;2.60;;
42964;SDS011;28604;51.204;22.552;2023-06-26T13:16:59;2.67;;;2.33;;
42964;SDS011;28604;51.204;22.552;2023-06-26T13:19:26;3.97;;;2.60;;
42964;SDS011;28604;51.204;22.552;2023-06-26T13:21:53;2.60;;;2.17;;
42964;SDS011;28604;51.204;22.552;2023-06-26T13:24:19;2.42;;;2.38;;
42964;SDS011;28604;51.204;22.552;2023-06-26T13:26:46;2.50;;;2.38;;
42964;SDS011;28604;51.204;22.552;2023-06-26T13:29:12;2.22;;;2.03;;
42964;SDS011;28604;51.204;22.552;2023-06-26T13:31:38;2.13;;;2.08;;
42964;SDS011;28604;51.204;22.552;2023-06-26T13:34:04;2.13;;;2.03;;
42964;SDS011;28604;51.204;22.552;2023-06-26T13:36:31;3.67;;;2.45;;
42964;SDS011;28604;51.204;22.552;2023-06-26T13:38:59;2.20;;;2.20;;
42964;SDS011;28604;51.204;22.552;2023-06-26T13:41:25;2.33;;;2.20;;
42964;SDS011;28604;51.204;22.552;2023-06-26T13:43:51;2.60;;;2.40;;
42964;SDS011;28604;51.204;22.552;2023-06-26T13:46:17;3.15;;;2.33;;
42964;SDS011;28604;51.204;22.552;2023-06-26T13:48:44;2.00;;;1.90;;
42964;SDS011;28604;51.204;22.552;2023-06-26T13:51:11;2.33;;;2.22;;
42964;SDS011;28604;51.204;22.552;2023-06-26T13:53:37;2.95;;;2.40;;
42964;SDS011;28604;51.204;22.552;2023-06-26T13:56:04;3.10;;;2.22;;
42964;SDS011;28604;51.204;22.552;2023-06-26T13:58:30;3.53;;;2.75;;
42964;SDS011;28604;51.204;22.552;2023-06-26T14:00:58;10.50;;;2.60;;
42964;SDS011;28604;51.204;22.552;2023-06-26T14:03:25;4.97;;;2.10;;
42964;SDS011;28604;51.204;22.552;2023-06-26T14:05:52;2.15;;;2.08;;
42964;SDS011;28604;51.204;22.552;2023-06-26T14:08:18;1.92;;;1.83;;
42964;SDS011;28604;51.204;22.552;2023-06-26T14:10:44;3.85;;;2.17;;
42964;SDS011;28604;51.204;22.552;2023-06-26T14:13:10;2.40;;;2.30;;
42964;SDS011;28604;51.204;22.552;2023-06-26T14:15:41;2.03;;;1.92;;
42964;SDS011;28604;51.204;22.552;2023-06-26T14:18:08;3.08;;;1.90;;
42964;SDS011;28604;51.204;22.552;2023-06-26T14:20:34;3.00;;;1.90;;
42964;SDS011;28604;51.204;22.552;2023-06-26T14:23:01;1.70;;;1.60;;
42964;SDS011;28604;51.204;22.552;2023-06-26T14:25:27;3.97;;;1.70;;
42964;SDS011;28604;51.204;22.552;2023-06-26T14:27:57;1.90;;;1.60;;
42964;SDS011;28604;51.204;22.552;2023-06-26T14:30:23;2.28;;;1.90;;
42964;SDS011;28604;51.204;22.552;2023-06-26T14:32:49;2.00;;;1.85;;
42964;SDS011;28604;51.204;22.552;2023-06-26T14:35:15;3.60;;;1.75;;
42964;SDS011;28604;51.204;22.552;2023-06-26T14:37:41;1.40;;;1.33;;
42964;SDS011;28604;51.204;22.552;2023-06-26T14:40:09;1.98;;;1.70;;
42964;SDS011;28604;51.204;22.552;2023-06-26T14:42:35;3.25;;;1.75;;
42964;SDS011;28604;51.204;22.552;2023-06-26T14:45:01;4.10;;;1.75;;
42964;SDS011;28604;51.204;22.552;2023-06-26T14:47:28;1.80;;;1.70;;
42964;SDS011;28604;51.204;22.552;2023-06-26T14:49:54;1.70;;;1.60;;
42964;SDS011;28604;51.204;22.552;2023-06-26T14:52:20;1.30;;;1.30;;
42964;SDS011;28604;51.204;22.552;2023-06-26T14:54:46;1.50;;;1.50;;
42964;SDS011;28604;51.204;22.552;2023-06-26T14:57:12;3.38;;;1.73;;
42964;SDS011;28604;51.204;22.552;2023-06-26T14:59:38;2.92;;;1.67;;
42964;SDS011;28604;51.204;22.552;2023-06-26T15:02:04;2.30;;;1.55;;
42964;SDS011;28604;51.204;22.552;2023-06-26T15:04:31;2.63;;;1.95;;
42964;SDS011;28604;51.204;22.552;2023-06-26T15:06:57;2.20;;;2.03;;
42964;SDS011;28604;51.204;22.552;2023-06-26T15:09:23;3.90;;;1.73;;